createdAt,value
2023-08-23T00:00:36.047Z,77.53
2023-08-23T00:01:36.091Z,77.33
2023-08-23T00:02:36.174Z,77.63
2023-08-23T00:03:36.002Z,77.73
2023-08-23T00:04:36.009Z,77.63
2023-08-23T00:05:35.948Z,76.93
2023-08-23T00:06:35.988Z,76.93
2023-08-23T00:07:35.922Z,77.47
2023-08-23T00:08:35.934Z,78.13
2023-08-23T00:09:35.905Z,77.87
2023-08-23T00:10:35.922Z,78.07
2023-08-23T00:11:35.882Z,78.17
2023-08-23T00:12:35.881Z,78.17
2023-08-23T00:13:35.851Z,77.93
2023-08-23T00:14:35.840Z,77.73
2023-08-23T00:15:35.806Z,77.73
2023-08-23T00:16:36.416Z,77.57
2023-08-23T00:17:35.821Z,77.77
2023-08-23T00:18:35.817Z,78.07
2023-08-23T00:19:35.792Z,78.27
2023-08-23T00:20:35.776Z,78.67
2023-08-23T00:21:35.758Z,78.97
2023-08-23T00:22:35.742Z,78.97
2023-08-23T00:23:36.339Z,78.97
2023-08-23T00:24:35.736Z,78.47
2023-08-23T00:25:35.698Z,78.47
2023-08-23T00:26:35.732Z,78.97
2023-08-23T00:27:35.689Z,79.27
2023-08-23T00:28:35.666Z,78.47
2023-08-23T00:29:35.646Z,78.47
2023-08-23T00:30:35.711Z,78.56
2023-08-23T00:31:35.631Z,78.47
2023-08-23T00:32:35.756Z,78.47
2023-08-23T00:33:35.680Z,78.37
2023-08-23T00:34:35.637Z,78.80
2023-08-23T00:35:35.541Z,79.00
2023-08-23T00:36:35.586Z,78.80
2023-08-23T00:37:35.554Z,79.20
2023-08-23T00:38:35.547Z,79.50
2023-08-23T00:39:35.508Z,79.30
2023-08-23T00:40:35.528Z,79.60
2023-08-23T00:41:35.475Z,79.60
2023-08-23T00:42:35.501Z,79.90
2023-08-23T00:43:35.464Z,80.04
2023-08-23T00:44:35.455Z,80.44
2023-08-23T00:45:35.420Z,80.34
2023-08-23T00:46:35.498Z,80.34
2023-08-23T00:47:35.466Z,80.34
2023-08-23T00:48:35.400Z,80.77
2023-08-23T00:49:35.773Z,80.98
2023-08-23T00:50:35.396Z,81.18
2023-08-23T00:51:35.390Z,81.57
2023-08-23T00:52:47.188Z,81.92
2023-08-23T00:53:35.310Z,82.11
2023-08-23T00:54:35.344Z,82.31
2023-08-23T00:55:35.363Z,82.41
2023-08-23T00:56:35.286Z,82.41
2023-08-23T00:57:35.253Z,82.71
2023-08-23T00:58:35.276Z,82.71
2023-08-23T00:59:35.228Z,82.71
2023-08-23T01:00:35.260Z,82.71
2023-08-23T01:01:35.291Z,82.61
2023-08-23T01:02:35.244Z,82.71
2023-08-23T01:03:35.239Z,82.81
2023-08-23T01:04:35.162Z,82.51
2023-08-23T01:05:35.197Z,82.41
2023-08-23T01:06:35.156Z,82.31
2023-08-23T01:07:35.191Z,82.31
2023-08-23T01:08:35.131Z,82.65
2023-08-23T01:09:35.128Z,82.55
2023-08-23T01:10:35.141Z,82.25
2023-08-23T01:11:35.131Z,82.55
2023-08-23T01:12:35.076Z,82.65
2023-08-23T01:13:35.090Z,82.55
2023-08-23T01:14:35.089Z,82.65
2023-08-23T01:15:35.064Z,82.75
2023-08-23T01:16:35.065Z,82.65
2023-08-23T01:17:35.080Z,82.75
2023-08-23T01:18:34.997Z,82.71
2023-08-23T01:19:35.006Z,82.41
2023-08-23T01:20:34.965Z,82.11
2023-08-23T01:21:34.998Z,81.81
2023-08-23T01:22:34.933Z,81.71
2023-08-23T01:23:34.964Z,81.81
2023-08-23T01:24:34.905Z,81.51
2023-08-23T01:25:34.932Z,81.45
2023-08-23T01:26:34.878Z,81.35
2023-08-23T01:27:40.246Z,81.35
2023-08-23T01:28:34.874Z,81.56
2023-08-23T01:29:34.874Z,81.65
2023-08-23T01:30:34.824Z,81.75
2023-08-23T01:31:34.918Z,81.95
2023-08-23T01:32:34.813Z,82.05
2023-08-23T01:33:34.855Z,81.85
2023-08-23T01:34:34.787Z,81.65
2023-08-23T01:35:34.792Z,81.65
2023-08-23T01:36:34.741Z,81.56
2023-08-23T01:37:34.787Z,81.99
2023-08-23T01:38:34.730Z,82.39
2023-08-23T01:39:34.744Z,82.59
2023-08-23T01:40:34.712Z,82.89
2023-08-23T01:41:34.709Z,83.63
2023-08-23T01:42:34.690Z,84.03
2023-08-23T01:43:34.689Z,84.13
2023-08-23T01:44:34.663Z,84.13
2023-08-23T01:45:34.754Z,83.83
2023-08-23T01:46:34.613Z,83.83
2023-08-23T01:47:34.646Z,84.03
2023-08-23T01:48:34.618Z,83.93
2023-08-23T01:49:34.647Z,83.99
2023-08-23T01:50:34.605Z,83.89
2023-08-23T01:51:34.626Z,83.69
2023-08-23T01:52:34.570Z,83.59
2023-08-23T01:53:34.565Z,83.39
2023-08-23T01:54:34.548Z,83.29
2023-08-23T01:55:34.525Z,83.25
2023-08-23T01:56:34.518Z,83.15
2023-08-23T01:57:34.488Z,83.15
2023-08-23T01:58:34.449Z,82.95
2023-08-23T01:59:34.471Z,82.85
2023-08-23T02:00:34.450Z,82.75
2023-08-23T02:01:34.479Z,82.71
2023-08-23T02:02:34.561Z,82.51
2023-08-23T02:03:34.499Z,82.51
2023-08-23T02:04:34.391Z,82.91
2023-08-23T02:05:34.408Z,82.95
2023-08-23T02:06:34.398Z,83.05
2023-08-23T02:07:34.367Z,83.45
2023-08-23T02:08:34.338Z,83.99
2023-08-23T02:09:34.348Z,84.09
2023-08-23T02:10:34.314Z,84.09
2023-08-23T02:11:34.370Z,84.39
2023-08-23T02:12:34.321Z,84.49
2023-08-23T02:13:34.318Z,84.59
2023-08-23T02:14:34.245Z,84.83
2023-08-23T02:15:34.280Z,84.83
2023-08-23T02:16:34.242Z,85.03
2023-08-23T02:17:34.262Z,85.33
2023-08-23T02:18:34.208Z,85.43
2023-08-23T02:19:34.223Z,85.68
2023-08-23T02:20:34.172Z,85.97
2023-08-23T02:21:34.184Z,86.07
2023-08-23T02:22:34.152Z,86.37
2023-08-23T02:23:34.238Z,86.57
2023-08-23T02:24:34.142Z,86.82
2023-08-23T02:25:34.146Z,87.12
2023-08-23T02:26:34.147Z,87.12
2023-08-23T02:27:34.100Z,87.32
2023-08-23T02:28:34.065Z,87.52
2023-08-23T02:29:34.091Z,87.32
2023-08-23T02:30:34.072Z,87.07
2023-08-23T02:31:34.080Z,86.87
2023-08-23T02:32:34.053Z,86.68
2023-08-23T02:33:34.071Z,86.57
2023-08-23T02:34:34.023Z,86.27
2023-08-23T02:35:34.012Z,85.97
2023-08-23T02:36:33.999Z,86.47
2023-08-23T02:37:33.989Z,86.43
2023-08-23T02:38:33.933Z,86.13
2023-08-23T02:39:33.944Z,86.07
2023-08-23T02:40:33.934Z,86.18
2023-08-23T02:41:33.936Z,86.07
2023-08-23T02:42:33.905Z,86.27
2023-08-23T02:43:33.919Z,86.68
2023-08-23T02:44:33.859Z,86.87
2023-08-23T02:45:33.885Z,87.07
2023-08-23T02:46:33.899Z,87.21
2023-08-23T02:47:33.874Z,87.32
2023-08-23T02:48:33.808Z,87.41
2023-08-23T02:49:33.855Z,87.21
2023-08-23T02:50:33.802Z,87.07
2023-08-23T02:51:33.808Z,86.77
2023-08-23T02:52:33.763Z,86.68
2023-08-23T02:53:33.765Z,86.91
2023-08-23T02:54:33.758Z,86.91
2023-08-23T02:55:33.735Z,87.55
2023-08-23T02:56:33.746Z,87.96
2023-08-23T02:57:33.728Z,88.16
2023-08-23T02:58:33.727Z,88.26
2023-08-23T02:59:33.701Z,88.06
2023-08-23T03:00:33.710Z,88.16
2023-08-23T03:01:33.657Z,87.96
2023-08-23T03:02:33.691Z,87.52
2023-08-23T03:03:33.674Z,87.02
2023-08-23T03:04:33.644Z,86.71
2023-08-23T03:05:33.591Z,86.47
2023-08-23T03:06:33.625Z,86.37
2023-08-23T03:07:33.593Z,86.18
2023-08-23T03:08:33.596Z,85.97
2023-08-23T03:09:33.564Z,85.73
2023-08-23T03:10:33.561Z,85.33
2023-08-23T03:11:33.531Z,85.27
2023-08-23T03:12:33.548Z,85.77
2023-08-23T03:13:33.491Z,86.07
2023-08-23T03:14:33.503Z,86.32
2023-08-23T03:15:33.539Z,86.52
2023-08-23T03:16:33.571Z,86.61
2023-08-23T03:17:33.468Z,86.47
2023-08-23T03:18:33.448Z,86.11
2023-08-23T03:19:33.420Z,86.11
2023-08-23T03:20:33.442Z,86.61
2023-08-23T03:21:33.413Z,87.12
2023-08-23T03:22:33.413Z,87.21
2023-08-23T03:23:33.388Z,87.12
2023-08-23T03:24:33.387Z,86.91
2023-08-23T03:25:33.330Z,86.82
2023-08-23T03:26:33.354Z,86.71
2023-08-23T03:27:33.318Z,86.61
2023-08-23T03:28:33.351Z,86.52
2023-08-23T03:29:33.315Z,86.41
2023-08-23T03:30:33.315Z,86.18
2023-08-23T03:31:33.252Z,85.97
2023-08-23T03:32:33.311Z,85.68
2023-08-23T03:33:33.259Z,85.57
2023-08-23T03:34:33.256Z,85.37
2023-08-23T03:35:33.213Z,85.47
2023-08-23T03:36:33.233Z,85.03
2023-08-23T03:37:33.205Z,84.83
2023-08-23T03:38:33.188Z,84.83
2023-08-23T03:39:33.167Z,84.97
2023-08-23T03:40:33.157Z,84.97
2023-08-23T03:41:33.124Z,85.27
2023-08-23T03:42:33.165Z,86.01
2023-08-23T03:43:33.097Z,86.32
2023-08-23T03:44:33.131Z,86.52
2023-08-23T03:45:33.085Z,86.91
2023-08-23T03:46:33.165Z,87.16
2023-08-23T03:47:33.074Z,87.36
2023-08-23T03:48:33.107Z,87.55
2023-08-23T03:49:33.050Z,87.66
2023-08-23T03:50:33.025Z,87.96
2023-08-23T03:51:33.026Z,87.96
2023-08-23T03:52:33.038Z,88.16
2023-08-23T03:53:33.005Z,88.20
2023-08-23T03:54:33.003Z,88.30
2023-08-23T03:55:32.964Z,88.40
2023-08-23T03:56:32.988Z,88.40
2023-08-23T03:57:32.936Z,88.40
2023-08-23T03:58:32.972Z,88.50
2023-08-23T03:59:32.925Z,88.90
2023-08-23T04:00:32.911Z,89.30
2023-08-23T04:01:32.912Z,89.30
2023-08-23T04:02:32.896Z,89.11
2023-08-23T04:03:32.938Z,88.80
2023-08-23T04:04:32.998Z,88.70
2023-08-23T04:05:32.832Z,89.04
2023-08-23T04:06:32.831Z,89.25
2023-08-23T04:07:32.782Z,89.45
2023-08-23T04:08:32.833Z,89.65
2023-08-23T04:09:32.777Z,89.89
2023-08-23T04:10:32.824Z,89.89
2023-08-23T04:11:32.774Z,90.09
2023-08-23T04:12:32.797Z,90.44
2023-08-23T04:13:32.734Z,90.84
2023-08-23T04:14:32.762Z,91.24
2023-08-23T04:15:34.577Z,91.58
2023-08-23T04:16:32.712Z,91.74
2023-08-23T04:17:32.684Z,91.84
2023-08-23T04:18:32.695Z,91.64
2023-08-23T04:19:32.629Z,91.74
2023-08-23T04:20:32.672Z,91.74
2023-08-23T04:21:32.605Z,91.74
2023-08-23T04:22:32.630Z,91.74
2023-08-23T04:23:32.611Z,91.84
2023-08-23T04:24:34.404Z,91.84
2023-08-23T04:25:32.582Z,91.84
2023-08-23T04:26:32.586Z,91.94
2023-08-23T04:27:32.575Z,92.04
2023-08-23T04:28:32.576Z,92.04
2023-08-23T04:29:32.515Z,92.04
2023-08-23T04:30:32.580Z,92.29
2023-08-23T04:31:32.530Z,92.18
2023-08-23T04:32:32.536Z,92.29
2023-08-23T04:33:32.472Z,92.38
2023-08-23T04:34:32.477Z,92.49
2023-08-23T04:35:32.444Z,92.49
2023-08-23T04:36:32.446Z,92.24
2023-08-23T04:37:33.219Z,92.24
2023-08-23T04:38:32.417Z,91.94
2023-08-23T04:39:32.388Z,91.74
2023-08-23T04:40:32.384Z,91.44
2023-08-23T04:41:32.352Z,91.03
2023-08-23T04:42:32.390Z,90.73
2023-08-23T04:43:32.325Z,90.53
2023-08-23T04:44:32.355Z,90.73
2023-08-23T04:45:32.301Z,90.84
2023-08-23T04:46:32.318Z,90.84
2023-08-23T04:47:32.355Z,90.84
2023-08-23T04:48:32.289Z,90.84
2023-08-23T04:49:32.278Z,90.79
2023-08-23T04:50:32.262Z,90.59
2023-08-23T04:51:32.220Z,90.19
2023-08-23T04:52:32.281Z,89.99
2023-08-23T04:53:32.200Z,89.75
2023-08-23T04:54:32.220Z,89.45
2023-08-23T04:55:32.170Z,88.64
2023-08-23T04:56:32.185Z,88.64
2023-08-23T04:57:32.146Z,88.75
2023-08-23T04:58:32.181Z,89.29
2023-08-23T04:59:32.103Z,90.23
2023-08-23T05:00:32.159Z,91.28
2023-08-23T05:01:32.118Z,92.18
2023-08-23T05:02:32.115Z,92.83
2023-08-23T05:03:32.058Z,93.23
2023-08-23T05:04:32.105Z,93.43
2023-08-23T05:05:32.093Z,93.54
2023-08-23T05:06:34.476Z,93.39
2023-08-23T05:07:32.010Z,93.33
2023-08-23T05:08:32.038Z,93.29
2023-08-23T05:09:31.981Z,93.19
2023-08-23T05:10:31.972Z,93.13
2023-08-23T05:11:31.961Z,93.13
2023-08-23T05:12:31.994Z,93.43
2023-08-23T05:13:31.933Z,93.74
2023-08-23T05:14:31.940Z,94.13
2023-08-23T05:15:31.901Z,94.34
2023-08-23T05:16:31.910Z,94.44
2023-08-23T05:17:31.946Z,94.59
2023-08-23T05:18:31.909Z,94.59
2023-08-23T05:19:31.844Z,94.64
2023-08-23T05:20:31.880Z,94.74
2023-08-23T05:21:31.838Z,94.64
2023-08-23T05:22:31.844Z,94.54
2023-08-23T05:23:31.825Z,94.29
2023-08-23T05:24:31.845Z,93.89
2023-08-23T05:25:31.792Z,93.69
2023-08-23T05:26:31.789Z,93.39
2023-08-23T05:27:31.741Z,93.09
2023-08-23T05:28:31.774Z,93.19
2023-08-23T05:29:31.729Z,93.59
2023-08-23T05:30:31.720Z,93.49
2023-08-23T05:31:31.956Z,93.79
2023-08-23T05:32:31.703Z,93.99
2023-08-23T05:33:31.688Z,94.20
2023-08-23T05:34:31.697Z,94.20
2023-08-23T05:35:31.675Z,93.99
2023-08-23T05:36:31.664Z,93.69
2023-08-23T05:37:31.634Z,93.44
2023-08-23T05:38:31.621Z,93.24
2023-08-23T05:39:31.585Z,92.94
2023-08-23T05:40:31.630Z,92.65
2023-08-23T05:41:31.597Z,92.30
2023-08-23T05:42:31.590Z,91.80
2023-08-23T05:43:31.552Z,91.50
2023-08-23T05:44:31.544Z,91.09
2023-08-23T05:45:31.643Z,90.75
2023-08-23T05:46:31.554Z,90.65
2023-08-23T05:47:31.520Z,90.15
2023-08-23T05:48:31.493Z,90.20
2023-08-23T05:49:31.460Z,89.81
2023-08-23T05:50:31.480Z,89.50
2023-08-23T05:51:31.444Z,89.50
2023-08-23T05:52:31.464Z,89.50
2023-08-23T05:53:31.440Z,89.30
2023-08-23T05:54:31.445Z,89.40
2023-08-23T05:55:31.385Z,89.50
2023-08-23T05:56:31.406Z,89.61
2023-08-23T05:57:31.399Z,89.66
2023-08-23T05:58:31.388Z,89.56
2023-08-23T05:59:31.331Z,89.56
2023-08-23T06:00:31.329Z,89.26
2023-08-23T06:01:31.359Z,88.86
2023-08-23T06:02:31.342Z,88.86
2023-08-23T06:03:31.345Z,88.96
2023-08-23T06:04:31.291Z,88.36
2023-08-23T06:05:31.301Z,88.46
2023-08-23T06:06:31.334Z,88.32
2023-08-23T06:07:31.235Z,88.12
2023-08-23T06:08:31.240Z,88.02
2023-08-23T06:09:31.212Z,88.02
2023-08-23T06:10:31.232Z,87.82
2023-08-23T06:11:31.222Z,87.62
2023-08-23T06:12:31.201Z,87.21
2023-08-23T06:13:31.160Z,87.41
2023-08-23T06:14:31.170Z,87.71
2023-08-23T06:15:31.131Z,87.32
2023-08-23T06:16:31.205Z,87.48
2023-08-23T06:17:31.120Z,87.48
2023-08-23T06:18:31.125Z,87.37
2023-08-23T06:19:31.104Z,86.77
2023-08-23T06:20:31.110Z,85.87
2023-08-23T06:21:31.045Z,85.77
2023-08-23T06:22:31.099Z,86.27
2023-08-23T06:23:31.015Z,86.68
2023-08-23T06:24:31.039Z,86.18
2023-08-23T06:25:31.004Z,85.87
2023-08-23T06:26:31.007Z,85.37
2023-08-23T06:27:30.976Z,85.27
2023-08-23T06:28:31.002Z,85.23
2023-08-23T06:29:30.931Z,86.03
2023-08-23T06:30:30.980Z,85.83
2023-08-23T06:31:30.921Z,85.13
2023-08-23T06:32:30.919Z,85.03
2023-08-23T06:33:30.930Z,85.43
2023-08-23T06:34:30.974Z,84.63
2023-08-23T06:35:30.895Z,85.03
2023-08-23T06:36:30.877Z,84.33
2023-08-23T06:37:30.904Z,83.73
2023-08-23T06:38:30.911Z,83.93
2023-08-23T06:39:34.253Z,84.43
2023-08-23T06:40:30.823Z,84.53
2023-08-23T06:41:30.820Z,84.43
2023-08-23T06:42:30.984Z,84.19
2023-08-23T06:43:30.784Z,83.99
2023-08-23T06:44:30.779Z,82.69
2023-08-23T06:45:30.725Z,82.69
2023-08-23T06:46:30.800Z,83.19
2023-08-23T06:47:30.774Z,83.19
2023-08-23T06:48:30.730Z,83.39
2023-08-23T06:49:30.698Z,83.19
2023-08-23T06:50:30.732Z,82.99
2023-08-23T06:51:30.670Z,82.59
2023-08-23T06:52:30.711Z,82.59
2023-08-23T06:53:30.637Z,83.29
2023-08-23T06:54:30.661Z,83.25
2023-08-23T06:55:30.616Z,83.15
2023-08-23T06:56:30.640Z,82.85
2023-08-23T06:57:30.610Z,82.85
2023-08-23T06:58:30.608Z,82.95
2023-08-23T06:59:30.570Z,83.25
2023-08-23T07:00:30.587Z,83.55
2023-08-23T07:01:30.525Z,83.55
2023-08-23T07:02:30.571Z,82.85
2023-08-23T07:03:30.613Z,82.35
2023-08-23T07:04:30.533Z,82.75
2023-08-23T07:05:30.468Z,83.01
2023-08-23T07:06:30.806Z,84.01
2023-08-23T07:07:30.433Z,83.41
2023-08-23T07:08:30.468Z,84.11
2023-08-23T07:09:30.442Z,83.21
2023-08-23T07:10:30.429Z,82.71
2023-08-23T07:11:30.458Z,82.51
2023-08-23T07:12:30.387Z,82.61
2023-08-23T07:13:30.392Z,82.61
2023-08-23T07:14:30.352Z,82.71
2023-08-23T07:15:30.375Z,83.11
2023-08-23T07:16:30.543Z,83.11
2023-08-23T07:17:30.386Z,82.51
2023-08-23T07:18:30.312Z,82.77
2023-08-23T07:19:30.353Z,82.77
2023-08-23T07:20:30.282Z,82.97
2023-08-23T07:21:30.350Z,82.87
2023-08-23T07:22:30.300Z,81.87
2023-08-23T07:23:30.267Z,81.98
2023-08-23T07:24:30.280Z,81.77
2023-08-23T07:25:30.319Z,82.77
2023-08-23T07:26:30.208Z,81.57
2023-08-23T07:27:30.235Z,81.43
2023-08-23T07:28:30.184Z,81.18
2023-08-23T07:29:30.231Z,81.67
2023-08-23T07:30:30.189Z,81.18
2023-08-23T07:31:30.148Z,81.43
2023-08-23T07:32:30.160Z,80.83
2023-08-23T07:33:30.136Z,81.13
2023-08-23T07:34:30.127Z,81.54
2023-08-23T07:35:30.107Z,81.54
2023-08-23T07:36:31.342Z,81.13
2023-08-23T07:37:30.083Z,80.94
2023-08-23T07:38:30.043Z,80.83
2023-08-23T07:39:30.105Z,80.04
2023-08-23T07:40:30.011Z,79.84
2023-08-23T07:41:30.032Z,79.90
2023-08-23T07:42:30.014Z,80.10
2023-08-23T07:43:30.031Z,80.40
2023-08-23T07:44:29.960Z,80.50
2023-08-23T07:45:30.026Z,80.60
2023-08-23T07:46:29.989Z,80.20
2023-08-23T07:47:30.007Z,80.60
2023-08-23T07:48:29.908Z,80.80
2023-08-23T07:49:29.925Z,80.70
2023-08-23T07:50:29.910Z,80.20
2023-08-23T07:51:31.871Z,80.16
2023-08-23T07:52:29.906Z,81.06
2023-08-23T07:53:29.896Z,80.36
2023-08-23T07:54:29.841Z,80.06
2023-08-23T07:55:29.864Z,79.86
2023-08-23T07:56:29.823Z,80.12
2023-08-23T07:57:29.837Z,80.22
2023-08-23T07:58:29.848Z,79.49
2023-08-23T07:59:29.835Z,80.08
2023-08-23T08:00:30.315Z,79.39
2023-08-23T08:01:29.853Z,79.49
2023-08-23T08:02:29.776Z,78.89
2023-08-23T08:03:29.799Z,78.99
2023-08-23T08:04:29.743Z,78.95
2023-08-23T08:05:29.733Z,78.16
2023-08-23T08:06:29.677Z,77.06
2023-08-23T08:08:00.776Z,77.06
2023-08-23T08:08:31.184Z,76.43
2023-08-23T08:09:29.668Z,76.43
2023-08-23T08:10:29.639Z,76.72
2023-08-23T08:11:29.661Z,76.03
2023-08-23T08:12:29.639Z,76.03
2023-08-23T08:13:29.650Z,75.93
2023-08-23T08:14:29.568Z,75.83
2023-08-23T08:15:29.614Z,76.89
2023-08-23T08:16:29.592Z,76.59
2023-08-23T08:17:30.455Z,75.89
2023-08-23T08:18:29.540Z,76.06
2023-08-23T08:19:29.550Z,76.35
2023-08-23T08:20:29.534Z,74.96
2023-08-23T08:21:29.526Z,75.36
2023-08-23T08:22:29.464Z,75.36
2023-08-23T08:23:29.470Z,74.56
2023-08-23T08:24:29.484Z,74.46
2023-08-23T08:25:29.491Z,74.86
2023-08-23T08:26:32.364Z,75.26
2023-08-23T08:27:29.454Z,75.12
2023-08-23T08:28:29.417Z,75.42
2023-08-23T08:29:29.439Z,74.82
2023-08-23T08:30:29.363Z,74.73
2023-08-23T08:31:29.458Z,74.43
2023-08-23T08:32:29.381Z,74.99
2023-08-23T08:33:29.361Z,74.99
2023-08-23T08:34:29.393Z,75.05
2023-08-23T08:35:32.286Z,75.05
2023-08-23T08:36:29.313Z,73.96
2023-08-23T08:37:29.324Z,74.65
2023-08-23T08:38:29.316Z,73.96
2023-08-23T08:39:29.314Z,73.76
2023-08-23T08:40:29.248Z,73.66
2023-08-23T08:41:29.262Z,73.46
2023-08-23T08:42:29.254Z,73.16
2023-08-23T08:43:29.235Z,72.97
2023-08-23T08:44:29.292Z,73.46
2023-08-23T08:45:29.221Z,73.72
2023-08-23T08:46:29.196Z,73.82
2023-08-23T08:47:29.206Z,73.39
2023-08-23T08:48:29.140Z,73.79
2023-08-23T08:49:29.172Z,72.20
2023-08-23T08:50:29.133Z,72.30
2023-08-23T08:51:29.136Z,72.40
2023-08-23T08:52:29.125Z,72.40
2023-08-23T08:53:30.847Z,72.00
2023-08-23T08:54:29.072Z,72.89
2023-08-23T08:55:29.118Z,72.80
2023-08-23T08:56:29.076Z,73.00
2023-08-23T08:57:29.067Z,73.19
2023-08-23T08:58:29.012Z,73.00
2023-08-23T08:59:29.048Z,72.89
2023-08-23T09:00:30.234Z,71.97
2023-08-23T09:01:29.100Z,71.67
2023-08-23T09:02:29.924Z,72.07
2023-08-23T09:03:29.141Z,72.03
2023-08-23T09:04:28.940Z,72.73
2023-08-23T09:05:28.984Z,71.44
2023-08-23T09:06:28.925Z,70.42
2023-08-23T09:07:28.954Z,70.12
2023-08-23T09:08:28.927Z,70.81
2023-08-23T09:09:28.902Z,69.32
2023-08-23T09:10:28.877Z,69.42
2023-08-23T09:11:30.361Z,70.81
2023-08-23T09:12:28.863Z,69.82
2023-08-23T09:13:28.907Z,69.82
2023-08-23T09:14:28.932Z,69.62
2023-08-23T09:15:28.830Z,68.83
2023-08-23T09:16:28.775Z,69.42
2023-08-23T09:17:28.862Z,70.02
2023-08-23T09:18:28.770Z,69.53
2023-08-23T09:19:29.682Z,68.57
2023-08-23T09:20:30.882Z,69.65
2023-08-23T09:21:28.754Z,68.96
2023-08-23T09:22:28.771Z,68.53
2023-08-23T09:23:28.733Z,69.53
2023-08-23T09:24:28.698Z,68.50
2023-08-23T09:25:28.679Z,68.01
2023-08-23T09:26:28.670Z,68.27
2023-08-23T09:27:37.685Z,67.47
2023-08-23T09:28:28.838Z,67.77
2023-08-23T09:29:28.670Z,69.16
2023-08-23T09:30:28.619Z,67.54
2023-08-23T09:31:28.630Z,67.74
2023-08-23T09:32:28.632Z,67.02
2023-08-23T09:33:28.633Z,67.21
2023-08-23T09:34:28.570Z,66.52
2023-08-23T09:35:28.567Z,66.19
2023-08-23T09:36:28.550Z,65.67
2023-08-23T09:37:29.254Z,65.83
2023-08-23T09:38:28.545Z,65.14
2023-08-23T09:39:28.560Z,65.93
2023-08-23T09:40:28.527Z,65.57
2023-08-23T09:41:28.487Z,65.37
2023-08-23T09:42:28.474Z,65.11
2023-08-23T09:43:28.495Z,65.20
2023-08-23T09:44:28.449Z,65.73
2023-08-23T09:45:28.449Z,66.22
2023-08-23T09:46:28.453Z,66.29
2023-08-23T09:47:28.429Z,66.00
2023-08-23T09:48:28.406Z,66.39
2023-08-23T09:49:28.394Z,66.88
2023-08-23T09:50:28.354Z,66.82
2023-08-23T09:51:28.363Z,67.71
2023-08-23T09:52:28.326Z,67.02
2023-08-23T09:53:28.362Z,67.68
2023-08-23T09:54:42.232Z,67.48
2023-08-23T09:55:32.052Z,66.88
2023-08-23T09:56:28.278Z,66.26
2023-08-23T09:57:28.271Z,65.67
2023-08-23T09:58:28.255Z,65.20
2023-08-23T09:59:28.281Z,66.29
2023-08-23T10:00:28.250Z,66.99
2023-08-23T10:01:33.112Z,66.46
2023-08-23T10:02:28.272Z,66.99
2023-08-23T10:03:28.386Z,67.54
2023-08-23T10:04:28.195Z,65.57
2023-08-23T10:05:29.184Z,66.85
2023-08-23T10:06:28.147Z,67.68
2023-08-23T10:07:28.174Z,66.59
2023-08-23T10:08:28.117Z,66.49
2023-08-23T10:09:28.144Z,65.90
2023-08-23T10:10:28.119Z,66.09
2023-08-23T10:11:30.548Z,65.20
2023-08-23T10:12:28.912Z,65.50
2023-08-23T10:13:28.095Z,64.61
2023-08-23T10:14:28.045Z,65.73
2023-08-23T10:15:28.088Z,64.84
2023-08-23T10:16:28.042Z,66.13
2023-08-23T10:17:28.069Z,65.14
2023-08-23T10:18:28.006Z,66.69
2023-08-23T10:19:27.996Z,65.70
2023-08-23T10:20:27.981Z,63.53
2023-08-23T10:21:28.554Z,65.20
2023-08-23T10:22:28.036Z,65.01
2023-08-23T10:23:27.971Z,65.01
2023-08-23T10:24:27.920Z,64.61
2023-08-23T10:25:27.936Z,64.91
2023-08-23T10:26:27.959Z,64.91
2023-08-23T10:27:27.927Z,65.50
2023-08-23T10:28:27.873Z,65.30
2023-08-23T10:29:27.901Z,64.28
2023-08-23T10:30:28.115Z,63.86
2023-08-23T10:31:27.910Z,64.06
2023-08-23T10:32:27.838Z,63.66
2023-08-23T10:33:27.837Z,63.89
2023-08-23T10:34:27.796Z,63.59
2023-08-23T10:35:27.814Z,64.51
2023-08-23T10:36:27.805Z,65.41
2023-08-23T10:37:27.779Z,64.71
2023-08-23T10:38:28.320Z,63.92
2023-08-23T10:39:27.827Z,64.61
2023-08-23T10:40:27.788Z,65.17
2023-08-23T10:41:27.729Z,63.69
2023-08-23T10:42:27.697Z,64.95
2023-08-23T10:43:27.745Z,64.55
2023-08-23T10:44:27.674Z,64.36
2023-08-23T10:45:27.669Z,63.86
2023-08-23T10:46:27.660Z,63.59
2023-08-23T10:47:27.687Z,64.45
2023-08-23T10:48:28.263Z,64.39
2023-08-23T10:49:27.627Z,64.98
2023-08-23T10:50:27.606Z,64.95
2023-08-23T10:51:27.594Z,64.45
2023-08-23T10:52:27.587Z,63.96
2023-08-23T10:53:29.494Z,64.36
2023-08-23T10:54:27.528Z,63.66
2023-08-23T10:55:27.565Z,64.15
2023-08-23T10:56:27.628Z,63.86
2023-08-23T10:57:27.593Z,63.66
2023-08-23T10:58:27.474Z,63.37
2023-08-23T10:59:27.489Z,63.66
2023-08-23T11:00:27.484Z,64.65
2023-08-23T11:01:27.488Z,64.25
2023-08-23T11:02:27.437Z,64.45
2023-08-23T11:03:27.437Z,63.04
2023-08-23T11:04:27.429Z,63.34
2023-08-23T11:05:27.551Z,63.27
2023-08-23T11:06:27.566Z,64.65
2023-08-23T11:07:27.402Z,64.45
2023-08-23T11:08:27.470Z,63.46
2023-08-23T11:09:27.390Z,63.56
2023-08-23T11:10:27.361Z,63.27
2023-08-23T11:11:27.407Z,63.96
2023-08-23T11:12:27.289Z,63.76
2023-08-23T11:13:27.307Z,64.36
2023-08-23T11:14:27.402Z,63.66
2023-08-23T11:15:27.292Z,64.75
2023-08-23T11:16:27.283Z,64.65
2023-08-23T11:17:27.304Z,63.86
2023-08-23T11:18:27.275Z,63.86
2023-08-23T11:19:27.248Z,63.83
2023-08-23T11:20:27.209Z,63.53
2023-08-23T11:21:27.244Z,64.88
2023-08-23T11:22:27.206Z,63.11
2023-08-23T11:23:27.540Z,62.32
2023-08-23T11:24:27.160Z,63.60
2023-08-23T11:25:27.191Z,61.72
2023-08-23T11:26:27.155Z,62.52
2023-08-23T11:27:27.098Z,61.16
2023-08-23T11:28:27.152Z,62.15
2023-08-23T11:29:27.127Z,63.04
2023-08-23T11:30:27.095Z,61.36
2023-08-23T11:31:27.068Z,61.46
2023-08-23T11:32:27.872Z,60.47
2023-08-23T11:33:27.109Z,60.38
2023-08-23T11:34:27.052Z,59.39
2023-08-23T11:35:27.039Z,59.48
2023-08-23T11:36:27.037Z,58.89
2023-08-23T11:37:27.010Z,59.69
2023-08-23T11:38:26.996Z,59.66
2023-08-23T11:39:26.975Z,59.36
2023-08-23T11:40:26.967Z,58.84
2023-08-23T11:41:26.923Z,61.30
2023-08-23T11:42:26.968Z,57.46
2023-08-23T11:43:26.893Z,58.12
2023-08-23T11:44:26.936Z,59.80
2023-08-23T11:45:26.904Z,58.02
2023-08-23T11:46:27.047Z,57.53
2023-08-23T11:47:26.890Z,58.42
2023-08-23T11:48:26.869Z,58.02
2023-08-23T11:49:26.922Z,57.95
2023-08-23T11:50:26.848Z,57.23
2023-08-23T11:51:26.795Z,58.51
2023-08-23T11:52:26.827Z,58.78
2023-08-23T11:53:26.768Z,58.19
2023-08-23T11:54:26.837Z,58.00
2023-08-23T11:55:26.762Z,57.70
2023-08-23T11:56:26.769Z,57.04
2023-08-23T11:57:26.736Z,58.02
2023-08-23T11:58:26.745Z,58.32
2023-08-23T11:59:26.725Z,58.69
2023-08-23T12:00:26.712Z,56.91
2023-08-23T12:01:26.703Z,55.66
2023-08-23T12:02:26.707Z,55.76
2023-08-23T12:03:26.707Z,56.35
2023-08-23T12:04:26.652Z,56.64
2023-08-23T12:05:26.632Z,56.35
2023-08-23T12:06:26.642Z,57.14
2023-08-23T12:07:26.619Z,55.95
2023-08-23T12:08:26.626Z,56.25
2023-08-23T12:09:26.570Z,56.42
2023-08-23T12:10:26.600Z,54.94
2023-08-23T12:11:26.555Z,54.22
2023-08-23T12:12:26.553Z,55.53
2023-08-23T12:13:26.589Z,56.88
2023-08-23T12:14:26.527Z,57.08
2023-08-23T12:15:26.505Z,56.20
2023-08-23T12:16:26.589Z,56.49
2023-08-23T12:17:26.483Z,56.00
2023-08-23T12:18:26.544Z,53.22
2023-08-23T12:19:31.635Z,52.21
2023-08-23T12:20:26.454Z,51.81
2023-08-23T12:21:26.422Z,50.63
2023-08-23T12:22:26.470Z,50.34
2023-08-23T12:23:26.386Z,50.51
2023-08-23T12:24:26.440Z,50.90
2023-08-23T12:25:26.368Z,49.65
2023-08-23T12:26:26.388Z,49.85
2023-08-23T12:27:26.711Z,49.16
2023-08-23T12:28:26.378Z,50.61
2023-08-23T12:29:26.341Z,50.42
2023-08-23T12:30:26.336Z,50.42
2023-08-23T12:31:26.316Z,50.51
2023-08-23T12:32:26.344Z,49.63
2023-08-23T12:33:26.310Z,49.73
2023-08-23T12:34:26.311Z,51.30
2023-08-23T12:35:26.280Z,51.59
2023-08-23T12:36:26.240Z,53.49
2023-08-23T12:37:26.213Z,53.39
2023-08-23T12:38:26.248Z,53.22
2023-08-23T12:39:26.188Z,53.02
2023-08-23T12:40:26.203Z,52.45
2023-08-23T12:41:26.170Z,54.33
2023-08-23T12:42:26.198Z,54.22
2023-08-23T12:43:26.177Z,54.13
2023-08-23T12:44:26.169Z,54.62
2023-08-23T12:45:26.172Z,54.52
2023-08-23T12:46:26.150Z,54.64
2023-08-23T12:47:26.158Z,53.93
2023-08-23T12:48:26.101Z,55.01
2023-08-23T12:49:26.100Z,53.64
2023-08-23T12:50:26.106Z,53.31
2023-08-23T12:51:26.057Z,54.10
2023-08-23T12:52:26.064Z,54.76